createdAt,value
2019-02-15T00:00:43.549Z,99101.33
2019-02-15T00:03:50.384Z,99095.53
2019-02-15T00:06:57.334Z,99094.75
2019-02-15T00:10:04.432Z,99097.41
2019-02-15T00:13:13.779Z,99100.24
2019-02-15T00:16:20.586Z,99099.77
2019-02-15T00:19:38.204Z,99100.20
2019-02-15T00:22:45.043Z,99105.20
2019-02-15T00:25:52.100Z,99108.03
2019-02-15T00:28:58.949Z,99104.20
2019-02-15T00:32:06.238Z,99106.52
2019-02-15T00:35:13.730Z,99104.33
2019-02-15T00:38:20.592Z,99109.55
2019-02-15T00:41:27.760Z,99102.20
2019-02-15T00:44:34.609Z,99104.98
2019-02-15T00:47:45.773Z,99107.64
2019-02-15T00:51:11.551Z,99110.38
2019-02-15T00:54:27.011Z,99108.59
2019-02-15T00:57:51.605Z,99103.45
2019-02-15T01:01:10.804Z,99105.72
2019-02-15T01:04:34.253Z,99104.84
2019-02-15T01:07:59.982Z,99098.75
2019-02-15T01:11:28.726Z,99100.50
2019-02-15T01:14:35.627Z,99088.30
2019-02-15T01:17:42.628Z,99082.73
2019-02-15T01:20:49.660Z,99085.61
2019-02-15T01:23:56.447Z,99083.05
2019-02-15T01:27:16.452Z,99084.44
2019-02-15T01:30:48.681Z,99071.50
2019-02-15T01:34:16.409Z,99070.77
2019-02-15T01:37:29.638Z,99071.29
2019-02-15T01:40:56.888Z,99061.75
2019-02-15T01:44:09.930Z,99054.58
2019-02-15T01:47:29.480Z,99058.89
2019-02-15T01:50:36.318Z,99056.83
2019-02-15T01:53:43.393Z,99049.22
2019-02-15T01:56:50.179Z,99052.88
2019-02-15T01:59:57.074Z,99052.88
2019-02-15T02:03:03.942Z,99051.18
2019-02-15T02:06:12.247Z,99057.14
2019-02-15T02:09:20.137Z,99053.36
2019-02-15T02:12:26.969Z,99049.04
2019-02-15T02:15:33.769Z,99044.59
2019-02-15T02:18:47.299Z,99046.86
2019-02-15T02:21:56.222Z,99042.03
2019-02-15T02:25:06.126Z,99044.45
2019-02-15T02:28:13.885Z,99050.33
2019-02-15T02:31:20.816Z,99029.76
2019-02-15T02:34:27.868Z,99028.84
2019-02-15T02:37:36.648Z,99037.84
2019-02-15T02:40:43.616Z,99032.15
2019-02-15T02:43:59.464Z,99037.34
2019-02-15T02:46:59.604Z,99037.15
2019-02-15T02:50:06.703Z,99038.61
2019-02-15T02:53:13.569Z,99040.13
2019-02-15T02:56:20.648Z,99039.73
2019-02-15T02:59:27.622Z,99043.05
2019-02-15T03:02:34.540Z,99043.09
2019-02-15T03:05:41.637Z,99043.29
2019-02-15T03:08:48.576Z,99043.14
2019-02-15T03:11:55.583Z,99038.95
2019-02-15T03:15:02.513Z,99038.19
2019-02-15T03:18:09.352Z,99043.50
2019-02-15T03:21:19.229Z,99040.98
2019-02-15T03:24:24.971Z,99048.20
2019-02-15T03:27:34.006Z,99042.53
2019-02-15T03:30:40.865Z,99048.20
2019-02-15T03:33:47.758Z,99048.64
2019-02-15T03:37:22.612Z,99049.38
2019-02-15T03:40:48.438Z,99042.80
2019-02-15T03:43:56.314Z,99046.55
2019-02-15T03:47:04.578Z,99045.67
2019-02-15T03:50:11.561Z,99043.69
2019-02-15T03:53:18.437Z,99046.25
2019-02-15T03:56:25.373Z,99039.20
2019-02-15T03:59:32.325Z,99035.98
2019-02-15T04:02:39.184Z,99033.97
2019-02-15T04:05:46.011Z,99027.19
2019-02-15T04:08:52.879Z,99033.23
2019-02-15T04:11:59.774Z,99036.50
2019-02-15T04:15:09.417Z,99034.32
2019-02-15T04:18:15.936Z,99036.70
2019-02-15T04:21:22.822Z,99032.39
2019-02-15T04:24:29.638Z,99026.53
2019-02-15T04:27:36.514Z,99030.70
2019-02-15T04:30:43.556Z,99023.78
2019-02-15T04:33:53.173Z,99019.65
2019-02-15T04:37:00.002Z,99019.35
2019-02-15T04:40:08.185Z,99017.03
2019-02-15T04:43:15.069Z,99016.66
2019-02-15T04:46:21.848Z,99019.42
2019-02-15T04:49:29.211Z,99019.47
2019-02-15T04:52:36.140Z,99015.25
2019-02-15T04:55:43.601Z,99018.20
2019-02-15T04:58:50.640Z,99015.80
2019-02-15T05:01:57.618Z,99009.23
2019-02-15T05:05:05.581Z,99009.50
2019-02-15T05:08:12.606Z,99008.75
2019-02-15T05:11:20.546Z,99007.41
2019-02-15T05:14:27.566Z,99004.41
2019-02-15T05:17:34.354Z,99010.57
2019-02-15T05:20:41.175Z,99005.58
2019-02-15T05:23:50.392Z,99012.75
2019-02-15T05:26:57.282Z,99008.00
2019-02-15T05:30:04.049Z,99012.56
2019-02-15T05:33:10.869Z,99010.66
2019-02-15T05:36:17.636Z,99016.25
2019-02-15T05:39:25.962Z,99020.17
2019-02-15T05:42:32.794Z,99022.85
2019-02-15T05:45:41.201Z,99022.27
2019-02-15T05:48:48.280Z,99020.33
2019-02-15T05:51:55.635Z,99022.76
2019-02-15T05:55:02.671Z,99017.91
2019-02-15T05:58:09.553Z,99019.84
2019-02-15T06:01:17.111Z,99024.00
2019-02-15T06:04:25.155Z,99027.98
2019-02-15T06:07:32.025Z,99023.63
2019-02-15T06:10:38.963Z,99018.96
2019-02-15T06:13:45.972Z,99027.27
2019-02-15T06:16:52.803Z,99025.52
2019-02-15T06:19:59.654Z,99021.34
2019-02-15T06:23:07.671Z,99024.00
2019-02-15T06:26:14.788Z,99028.23
2019-02-15T06:29:21.610Z,99033.51
2019-02-15T06:32:28.476Z,99032.83
2019-02-15T06:35:35.480Z,99028.52
2019-02-15T06:38:42.294Z,99034.30
2019-02-15T06:41:49.273Z,99034.15
2019-02-15T06:44:56.267Z,99038.50
2019-02-15T06:48:03.288Z,99037.09
2019-02-15T06:51:10.264Z,99046.39
2019-02-15T06:54:17.581Z,99046.94
2019-02-15T06:57:24.506Z,99046.94
2019-02-15T07:01:05.681Z,99045.28
2019-02-15T07:04:29.897Z,99045.77
2019-02-15T07:07:36.897Z,99049.20
2019-02-15T07:10:43.729Z,99044.69
2019-02-15T07:13:52.499Z,99046.44
2019-02-15T07:16:59.355Z,99045.89
2019-02-15T07:20:08.064Z,99045.94
2019-02-15T07:23:16.059Z,99048.24
2019-02-15T07:26:23.034Z,99052.21
2019-02-15T07:29:29.928Z,99049.77
2019-02-15T07:32:36.825Z,99052.91
2019-02-15T07:35:43.996Z,99054.22
2019-02-15T07:38:51.197Z,99054.05
2019-02-15T07:41:58.076Z,99053.74
2019-02-15T07:45:05.104Z,99054.39
2019-02-15T07:48:12.126Z,99052.73
2019-02-15T07:51:18.934Z,99050.16
2019-02-15T07:54:27.400Z,99048.27
2019-02-15T07:57:34.230Z,99048.23
2019-02-15T08:00:41.110Z,99052.14
2019-02-15T08:03:48.066Z,99048.95
2019-02-15T08:06:55.144Z,99050.71
2019-02-15T08:10:02.047Z,99047.41
2019-02-15T08:13:08.930Z,99048.56
2019-02-15T08:16:15.943Z,99045.95
2019-02-15T08:19:22.815Z,99030.31
2019-02-15T08:22:29.707Z,99030.39
2019-02-15T08:25:36.608Z,99034.41
2019-02-15T08:28:43.573Z,99031.75
2019-02-15T08:31:50.448Z,99031.97
2019-02-15T08:34:57.407Z,99031.04
2019-02-15T08:38:04.294Z,99024.22
2019-02-15T08:41:11.275Z,99027.95
2019-02-15T08:44:18.219Z,99029.64
2019-02-15T08:47:25.264Z,99034.52
2019-02-15T08:50:32.058Z,99032.55
2019-02-15T08:53:38.913Z,99033.27
2019-02-15T08:56:46.152Z,99031.53
2019-02-15T08:59:54.086Z,99033.69
2019-02-15T09:03:01.148Z,99026.94
2019-02-15T09:06:08.219Z,99034.39
2019-02-15T09:09:15.114Z,99031.63
2019-02-15T09:12:22.045Z,99031.41
2019-02-15T09:15:29.007Z,99026.13
2019-02-15T09:18:35.860Z,99025.02
2019-02-15T09:21:42.732Z,99025.59
2019-02-15T09:24:49.665Z,99022.53
2019-02-15T09:28:14.917Z,99023.96
2019-02-15T09:31:21.933Z,99023.14
2019-02-15T09:34:28.868Z,99029.66
2019-02-15T09:37:37.084Z,99028.19
2019-02-15T09:40:45.049Z,99028.66
2019-02-15T09:43:51.890Z,99021.52
2019-02-15T09:46:58.864Z,99027.23
2019-02-15T09:50:07.539Z,99019.44
2019-02-15T09:53:15.114Z,99028.34
2019-02-15T09:56:22.021Z,99029.21
2019-02-15T09:59:32.165Z,99034.05
2019-02-15T10:02:39.166Z,99040.52
2019-02-15T10:05:45.954Z,99035.02
2019-02-15T10:08:52.865Z,99035.03
2019-02-15T10:11:59.728Z,99033.03
2019-02-15T10:15:07.097Z,99031.31
2019-02-15T10:18:14.183Z,99030.05
2019-02-15T10:21:27.275Z,99027.58
2019-02-15T10:24:43.353Z,99028.44
2019-02-15T10:27:54.603Z,99030.61
2019-02-15T10:31:02.835Z,99027.59
2019-02-15T10:34:11.113Z,99024.61
2019-02-15T10:37:19.144Z,99028.46
2019-02-15T10:40:26.069Z,99016.11
2019-02-15T10:43:33.268Z,99009.13
2019-02-15T10:46:40.392Z,99007.48
2019-02-15T10:49:47.281Z,99002.31
2019-02-15T10:52:54.429Z,99002.30
2019-02-15T10:56:01.758Z,99003.86
2019-02-15T10:59:08.864Z,98999.91
2019-02-15T11:02:17.060Z,98995.91
2019-02-15T11:05:24.179Z,98994.63
2019-02-15T11:08:31.582Z,98993.17
2019-02-15T11:11:38.868Z,98990.79
2019-02-15T11:14:46.277Z,98986.53
2019-02-15T11:17:54.572Z,98989.26
2019-02-15T11:21:01.484Z,98979.61
2019-02-15T11:24:08.418Z,98977.80
2019-02-15T11:27:15.363Z,98977.73
2019-02-15T11:30:22.450Z,98975.62
2019-02-15T11:33:29.255Z,98980.34
2019-02-15T11:36:36.384Z,98973.63
2019-02-15T11:39:43.368Z,98973.15
2019-02-15T11:42:50.310Z,98973.28
2019-02-15T11:45:57.291Z,98969.77
2019-02-15T11:49:07.117Z,98971.84
2019-02-15T11:52:14.147Z,98960.34
2019-02-15T11:55:21.364Z,98961.66
2019-02-15T11:58:29.507Z,98954.58
2019-02-15T12:01:37.595Z,98954.50
2019-02-15T12:04:44.833Z,98958.43
2019-02-15T12:07:51.765Z,98957.10
2019-02-15T12:10:58.858Z,98952.88
2019-02-15T12:14:05.892Z,98945.38
2019-02-15T12:17:16.410Z,98953.70
2019-02-15T12:20:23.363Z,98944.94
2019-02-15T12:23:30.261Z,98950.27
2019-02-15T12:26:37.177Z,98944.47
2019-02-15T12:29:44.078Z,98943.30
2019-02-15T12:32:56.079Z,98943.09
2019-02-15T12:36:03.139Z,98931.53
2019-02-15T12:39:14.291Z,98931.78
2019-02-15T12:42:21.007Z,98928.05
2019-02-15T12:45:27.909Z,98926.44
2019-02-15T12:48:34.838Z,98922.78
2019-02-15T12:51:41.752Z,98915.62
2019-02-15T12:54:48.729Z,98912.73
2019-02-15T12:57:55.615Z,98913.14
2019-02-15T13:01:02.702Z,98908.88
2019-02-15T13:04:11.020Z,98904.13
2019-02-15T13:07:18.208Z,98903.80
2019-02-15T13:10:28.531Z,98898.02
2019-02-15T13:13:35.652Z,98899.14
2019-02-15T13:16:42.644Z,98887.86
2019-02-15T13:19:49.516Z,98890.76
2019-02-15T13:22:56.450Z,98882.73
2019-02-15T13:26:08.493Z,98883.29
2019-02-15T13:29:13.528Z,98882.36
2019-02-15T13:32:25.328Z,98877.22
2019-02-15T13:35:32.390Z,98868.63
2019-02-15T13:38:40.968Z,98867.06
2019-02-15T13:41:48.089Z,98863.98
2019-02-15T13:44:59.533Z,98859.62
2019-02-15T13:48:06.862Z,98857.11
2019-02-15T13:51:14.018Z,98851.85
2019-02-15T13:54:21.124Z,98852.89
2019-02-15T13:57:28.711Z,98855.25
2019-02-15T14:00:35.651Z,98847.06
2019-02-15T14:03:42.671Z,98848.20
2019-02-15T14:06:56.365Z,98844.89
2019-02-15T14:10:04.357Z,98838.77
2019-02-15T14:13:11.318Z,98833.69
2019-02-15T14:16:18.245Z,98830.72
2019-02-15T14:19:25.243Z,98826.22
2019-02-15T14:22:32.191Z,98830.18
2019-02-15T14:25:39.247Z,98824.52
2019-02-15T14:28:46.153Z,98818.45
2019-02-15T14:31:53.165Z,98814.55
2019-02-15T14:35:02.246Z,98813.15
2019-02-15T14:38:09.085Z,98812.84
2019-02-15T14:41:16.656Z,98812.37
2019-02-15T14:44:23.670Z,98807.44
2019-02-15T14:47:31.545Z,98803.19
2019-02-15T14:50:38.532Z,98799.34
2019-02-15T14:53:45.333Z,98793.96
2019-02-15T14:56:52.301Z,98796.13
2019-02-15T14:59:59.146Z,98794.47
2019-02-15T15:03:06.124Z,98785.86
2019-02-15T15:06:13.586Z,98783.83
2019-02-15T15:09:20.446Z,98780.42
2019-02-15T15:12:27.825Z,98780.20
2019-02-15T15:15:35.036Z,98774.17
2019-02-15T15:18:41.998Z,98773.87
2019-02-15T15:21:48.900Z,98765.33
2019-02-15T15:24:55.968Z,98759.55
2019-02-15T15:28:02.810Z,98763.89
2019-02-15T15:31:11.330Z,98759.48
2019-02-15T15:34:18.427Z,98753.70
2019-02-15T15:37:25.420Z,98754.16
2019-02-15T15:40:32.393Z,98754.98
2019-02-15T15:43:39.256Z,98750.61
2019-02-15T15:46:46.092Z,98755.95
2019-02-15T15:49:53.099Z,98753.31
2019-02-15T15:53:00.049Z,98753.52
2019-02-15T15:56:06.930Z,98751.43
2019-02-15T15:59:15.105Z,98747.29
2019-02-15T16:02:22.046Z,98748.55
2019-02-15T16:05:29.155Z,98750.09
2019-02-15T16:08:36.169Z,98746.50
2019-02-15T16:11:43.288Z,98746.95
2019-02-15T16:14:53.208Z,98748.20
2019-02-15T16:17:59.857Z,98750.16
2019-02-15T16:21:06.885Z,98749.77
2019-02-15T16:24:14.104Z,98747.34
2019-02-15T16:27:21.044Z,98741.39
2019-02-15T16:30:27.969Z,98744.25
2019-02-15T16:33:34.794Z,98740.23
2019-02-15T16:36:41.980Z,98746.88
2019-02-15T16:39:48.774Z,98746.16
2019-02-15T16:42:55.746Z,98746.72
2019-02-15T16:46:02.593Z,98752.41
2019-02-15T16:49:09.953Z,98756.64
2019-02-15T16:52:16.924Z,98762.70
2019-02-15T16:55:23.771Z,98761.56
2019-02-15T16:58:30.551Z,98762.52
2019-02-15T17:01:37.964Z,98763.52
2019-02-15T17:04:44.989Z,98757.48
2019-02-15T17:07:52.155Z,98757.88
2019-02-15T17:10:59.529Z,98765.54
2019-02-15T17:14:06.467Z,98778.79
2019-02-15T17:17:13.823Z,98773.71
2019-02-15T17:20:20.673Z,98769.87
2019-02-15T17:23:27.437Z,98771.16
2019-02-15T17:26:34.380Z,98767.32
2019-02-15T17:29:41.264Z,98774.54
2019-02-15T17:32:48.190Z,98777.51
2019-02-15T17:35:55.160Z,98765.65
2019-02-15T17:39:04.255Z,98776.67
2019-02-15T17:42:13.629Z,98768.17
2019-02-15T17:45:20.745Z,98767.74
2019-02-15T17:48:27.669Z,98770.73
2019-02-15T17:51:34.702Z,98766.84
2019-02-15T17:54:41.997Z,98759.66
2019-02-15T17:57:48.895Z,98761.34
2019-02-15T18:00:57.247Z,98763.47
2019-02-15T18:04:04.180Z,98767.27
2019-02-15T18:07:12.786Z,98765.14
2019-02-15T18:10:19.699Z,98766.42
2019-02-15T18:13:26.605Z,98763.41
2019-02-15T18:16:33.533Z,98756.23
2019-02-15T18:19:47.027Z,98761.97
2019-02-15T18:22:49.482Z,98768.94
2019-02-15T18:25:56.540Z,98767.23
2019-02-15T18:29:03.483Z,98765.13
2019-02-15T18:32:13.452Z,98757.50
2019-02-15T18:35:20.379Z,98758.37
2019-02-15T18:38:27.439Z,98754.98
2019-02-15T18:41:34.565Z,98754.12
2019-02-15T18:44:41.372Z,98753.72
2019-02-15T18:47:48.374Z,98746.48
2019-02-15T18:50:55.260Z,98748.63
2019-02-15T18:54:02.278Z,98745.20
2019-02-15T18:57:09.227Z,98750.28
2019-02-15T19:00:22.543Z,98754.05
2019-02-15T19:03:29.647Z,98748.55
2019-02-15T19:06:39.326Z,98747.67
2019-02-15T19:09:46.395Z,98743.84
2019-02-15T19:12:53.629Z,98743.40
2019-02-15T19:16:01.790Z,98744.63
2019-02-15T19:19:11.916Z,98741.64
2019-02-15T19:22:22.747Z,98742.49
2019-02-15T19:25:31.314Z,98738.92
2019-02-15T19:28:39.348Z,98741.13
2019-02-15T19:31:49.809Z,98740.21
2019-02-15T19:34:58.032Z,98737.65
2019-02-15T19:38:08.909Z,98747.68
2019-02-15T19:41:17.014Z,98740.02
2019-02-15T19:44:24.039Z,98739.94
2019-02-15T19:47:30.970Z,98742.94
2019-02-15T19:50:39.064Z,98745.48
2019-02-15T19:53:46.029Z,98737.00
2019-02-15T19:56:53.457Z,98739.59
2019-02-15T20:00:00.733Z,98744.20
2019-02-15T20:03:07.874Z,98745.84
2019-02-15T20:06:15.116Z,98741.55
2019-02-15T20:09:21.958Z,98742.41
2019-02-15T20:12:28.881Z,98738.96
2019-02-15T20:15:36.217Z,98740.41
2019-02-15T20:18:43.349Z,98726.59
2019-02-15T20:21:50.453Z,98729.60
2019-02-15T20:24:58.749Z,98723.11
2019-02-15T20:28:13.613Z,98724.85
2019-02-15T20:31:14.887Z,98726.33
2019-02-15T20:34:21.777Z,98723.28
2019-02-15T20:37:28.755Z,98723.80
2019-02-15T20:40:35.722Z,98726.73
2019-02-15T20:43:42.683Z,98724.69
2019-02-15T20:46:49.748Z,98716.84
2019-02-15T20:49:58.308Z,98721.39
2019-02-15T20:53:05.437Z,98720.52
2019-02-15T20:56:12.490Z,98715.42
2019-02-15T20:59:19.493Z,98716.55
2019-02-15T21:02:26.389Z,98716.92
2019-02-15T21:05:33.300Z,98711.88
2019-02-15T21:08:40.440Z,98713.62
2019-02-15T21:11:47.453Z,98708.13
2019-02-15T21:14:54.310Z,98698.05
2019-02-15T21:18:01.515Z,98704.48
2019-02-15T21:21:08.484Z,98690.53
2019-02-15T21:24:15.809Z,98695.27
2019-02-15T21:27:22.878Z,98693.11
2019-02-15T21:30:29.878Z,98687.20
2019-02-15T21:33:36.774Z,98683.48
2019-02-15T21:36:45.050Z,98681.67
2019-02-15T21:39:51.920Z,98684.14
2019-02-15T21:42:59.031Z,98677.07
2019-02-15T21:46:06.068Z,98673.13
2019-02-15T21:49:13.643Z,98669.94
2019-02-15T21:52:22.864Z,98671.72
2019-02-15T21:55:31.195Z,98667.48
2019-02-15T21:58:38.210Z,98671.72
2019-02-15T22:01:45.059Z,98662.75
2019-02-15T22:04:52.072Z,98666.53
2019-02-15T22:07:58.942Z,98666.98
2019-02-15T22:11:05.896Z,98658.50
2019-02-15T22:14:14.392Z,98658.52
2019-02-15T22:17:21.524Z,98661.20
2019-02-15T22:20:28.484Z,98652.60
2019-02-15T22:23:35.353Z,98656.44
2019-02-15T22:26:42.228Z,98653.51
2019-02-15T22:29:50.308Z,98652.08
2019-02-15T22:32:57.255Z,98646.16
2019-02-15T22:36:04.137Z,98645.41
2019-02-15T22:39:11.247Z,98649.50
2019-02-15T22:42:18.120Z,98648.64
2019-02-15T22:45:25.191Z,98643.57
2019-02-15T22:48:32.047Z,98648.25
2019-02-15T22:51:39.317Z,98646.82
2019-02-15T22:54:46.192Z,98649.97
2019-02-15T22:57:53.042Z,98651.55
2019-02-15T23:01:20.391Z,98651.20
2019-02-15T23:04:27.528Z,98645.06
2019-02-15T23:07:36.199Z,98636.59
2019-02-15T23:10:43.053Z,98640.29
2019-02-15T23:13:49.992Z,98642.63
2019-02-15T23:16:57.032Z,98631.13
2019-02-15T23:20:03.981Z,98630.86
2019-02-15T23:23:11.080Z,98630.30
2019-02-15T23:26:17.864Z,98624.28
2019-02-15T23:29:24.931Z,98624.06
2019-02-15T23:32:32.137Z,98627.37
2019-02-15T23:35:39.035Z,98623.93
2019-02-15T23:38:45.899Z,98620.73
2019-02-15T23:41:53.004Z,98622.44
2019-02-15T23:44:59.788Z,98623.53
2019-02-15T23:48:06.688Z,98616.66
2019-02-15T23:51:14.153Z,98611.45
2019-02-15T23:54:22.404Z,98617.03
2019-02-15T23:57:29.361Z,98609.70
